Time;durP1;ratioP1;P1;durP2;ratioP2;P2;SDS_P1;SDS_P2;PMS_P1;PMS_P2;Temp;Humidity;BMP_temperature;BMP_pressure;BME280_temperature;BME280_humidity;BME280_pressure;Samples;Min_cycle;Max_cycle;Signal;HPM_P1;HPM_P2
2021/10/23 00:01:15;;;;;;;26.30;19.23;;;;;;;13.50;77.02;94708.02;826830;71;31532;-76
2021/10/23 00:16:22;;;;;;;26.80;18.10;;;;;;;13.51;76.88;94700.37;833115;71;29705;-76
2021/10/23 00:31:18;;;;;;;23.80;18.52;;;;;;;13.43;77.03;94687.36;826850;71;33209;-75
2021/10/23 00:46:33;;;;;;;25.55;19.40;;;;;;;13.12;77.37;94641.70;832979;71;32921;-75
2021/10/23 01:01:18;;;;;;;24.57;18.67;;;;;;;13.35;77.06;94655.69;829628;71;30400;-78
2021/10/23 01:16:29;;;;;;;24.20;18.95;;;;;;;13.29;77.46;94673.47;832447;71;32817;-79
2021/10/23 01:31:18;;;;;;;25.23;19.10;;;;;;;13.28;77.40;94672.42;833037;71;33264;-81
2021/10/23 01:46:21;;;;;;;25.88;20.62;;;;;;;13.28;77.62;94673.73;833101;71;32770;-79
2021/10/23 02:01:31;;;;;;;23.25;19.05;;;;;;;13.33;77.36;94667.84;833996;71;33294;-79
2021/10/23 02:16:14;;;;;;;25.12;19.55;;;;;;;13.30;77.39;94687.42;827877;71;32784;-76
2021/10/23 02:31:20;;;;;;;22.67;18.67;;;;;;;13.23;77.42;94700.99;834060;71;32761;-78
2021/10/23 02:46:17;;;;;;;24.80;16.95;;;;;;;13.09;77.45;94704.98;834468;71;32790;-77
2021/10/23 03:16:31;;;;;;;20.40;16.00;;;;;;;12.69;78.42;94696.11;825498;71;32813;-75
2021/10/23 03:31:19;;;;;;;21.02;15.48;;;;;;;12.63;78.48;94700.18;834049;71;32790;-79
2021/10/23 03:46:27;;;;;;;20.25;15.28;;;;;;;12.30;78.54;94673.20;833691;71;33428;-77
2021/10/23 04:01:20;;;;;;;18.98;15.00;;;;;;;12.54;78.60;94726.17;827398;71;32716;-76
2021/10/23 04:16:28;;;;;;;21.77;15.90;;;;;;;12.47;78.89;94714.73;833237;71;32913;-77
2021/10/23 04:31:14;;;;;;;19.20;15.10;;;;;;;12.36;79.06;94716.77;835233;71;32706;-78
2021/10/23 04:46:17;;;;;;;25.12;18.52;;;;;;;12.44;79.28;94732.41;833727;71;32955;-76
2021/10/23 05:01:08;;;;;;;25.85;17.50;;;;;;;12.50;79.42;94742.30;827797;71;29762;-77
2021/10/23 05:16:14;;;;;;;21.90;17.48;;;;;;;17.36;74.40;94763.97;827158;71;32795;-75
2021/10/23 05:31:08;;;;;;;24.90;19.20;;;;;;;15.38;70.05;94773.23;833226;71;30574;-76
2021/10/23 05:46:14;;;;;;;25.60;19.40;;;;;;;15.21;71.17;94795.71;826844;71;32749;-76
2021/10/23 06:01:13;;;;;;;28.92;22.73;;;;;;;15.97;67.99;94801.86;819795;70;33201;-76
2021/10/23 06:16:08;;;;;;;22.87;18.87;;;;;;;15.78;74.97;94831.31;827700;71;29780;-78
2021/10/23 06:31:16;;;;;;;25.17;20.25;;;;;;;15.75;69.90;94847.83;826603;71;32839;-76
2021/10/23 06:46:13;;;;;;;24.90;19.55;;;;;;;15.83;70.27;94858.16;827102;71;32150;-77
2021/10/23 07:01:15;;;;;;;23.45;17.75;;;;;;;15.99;69.41;94860.56;818004;71;33229;-78
2021/10/23 07:16:08;;;;;;;22.65;19.05;;;;;;;16.29;67.19;94879.78;827912;71;29718;-75
2021/10/23 07:31:08;;;;;;;22.05;17.90;;;;;;;16.61;66.26;94877.14;821755;71;29801;-77
2021/10/23 07:46:15;;;;;;;19.90;17.37;;;;;;;17.51;65.04;94850.92;821969;71;32784;-75
2021/10/23 08:01:09;;;;;;;26.70;20.95;;;;;;;19.06;62.75;94902.24;822730;71;30507;-76
2021/10/23 08:16:18;;;;;;;27.70;22.55;;;;;;;20.28;60.24;94914.42;820855;71;32863;-76
2021/10/23 08:31:12;;;;;;;32.67;26.20;;;;;;;21.47;54.24;94924.88;819112;71;32178;-76
2021/10/23 08:46:23;;;;;;;23.55;20.95;;;;;;;21.00;53.37;94918.41;833384;71;33154;-76
2021/10/23 09:16:18;;;;;;;15.57;13.80;;;;;;;21.15;53.43;94914.22;818877;71;29774;-76
2021/10/23 09:31:21;;;;;;;17.63;14.73;;;;;;;21.73;51.86;94925.66;826839;71;33550;-76
2021/10/23 09:46:20;;;;;;;18.27;16.40;;;;;;;21.45;52.53;94915.11;827087;71;32798;-76
2021/10/23 10:01:13;;;;;;;17.43;15.40;;;;;;;21.49;52.44;94915.42;833061;71;32623;-77
2021/10/23 10:16:11;;;;;;;14.03;11.37;;;;;;;21.06;53.05;94904.25;833627;71;29743;-76
2021/10/23 10:31:33;;;;;;;12.78;11.48;;;;;;;20.51;56.02;94910.66;827247;71;32737;-76
2021/10/23 10:46:08;;;;;;;13.83;12.03;;;;;;;19.84;56.87;94916.41;833623;71;30054;-77
2021/10/23 11:01:37;;;;;;;13.68;12.28;;;;;;;19.40;61.62;94930.31;826547;71;33364;-78
2021/10/23 11:16:28;;;;;;;14.10;12.53;;;;;;;19.01;65.60;94913.09;827667;71;30356;-78
2021/10/23 11:31:22;;;;;;;16.02;14.43;;;;;;;18.80;67.27;94915.27;820666;71;29828;-77
2021/10/23 11:46:11;;;;;;;17.02;14.47;;;;;;;18.67;69.31;94913.64;833323;71;30097;-75
2021/10/23 12:01:20;;;;;;;14.38;12.82;;;;;;;18.76;67.99;94908.26;821862;71;32907;-75
2021/10/23 12:16:53;;;;;;;14.10;12.40;;;;;;;18.59;67.41;94898.03;832882;71;32837;-75
2021/10/23 12:31:18;;;;;;;14.93;12.80;;;;;;;18.39;67.52;94905.50;820060;71;33396;-77
2021/10/23 12:46:28;;;;;;;13.25;11.90;;;;;;;18.17;68.65;94908.72;819878;71;32837;-78
2021/10/23 13:01:25;;;;;;;14.00;12.53;;;;;;;18.03;71.56;94916.74;818574;71;33288;-77
2021/10/23 13:16:10;;;;;;;25.85;19.30;;;;;;;17.78;71.80;94916.02;813250;71;29789;-76
2021/10/23 13:31:14;;;;;;;17.45;15.35;;;;;;;17.61;71.81;94922.20;813390;71;33217;-78
2021/10/23 13:46:16;;;;;;;13.05;10.72;;;;;;;17.53;70.46;94910.31;822792;71;32878;-77
2021/10/23 14:01:13;;;;;;;11.35;10.00;;;;;;;17.44;69.16;94902.41;817174;71;31880;-77
2021/10/23 14:16:11;;;;;;;11.35;10.25;;;;;;;17.28;69.87;94914.11;813871;71;30183;-78
2021/10/23 14:31:23;;;;;;;16.15;12.00;;;;;;;17.02;72.28;94916.87;832875;71;32899;-75
2021/10/23 14:46:10;;;;;;;16.70;14.33;;;;;;;16.75;73.55;94922.00;833647;71;29727;-78
2021/10/23 15:16:09;;;;;;;21.57;16.40;;;;;;;16.14;77.75;94948.53;827423;71;30857;-78
2021/10/23 15:31:08;;;;;;;41.45;24.55;;;;;;;15.95;78.77;94960.75;823685;71;30192;-75
2021/10/23 15:46:14;;;;;;;23.35;18.25;;;;;;;16.34;80.24;94979.72;826993;71;33196;-76
2021/10/23 16:01:14;;;;;;;24.32;18.32;;;;;;;16.05;81.18;94997.52;788764;74;33415;-79
2021/10/23 16:16:08;;;;;;;25.45;19.57;;;;;;;15.80;82.36;95023.63;827971;71;30206;-79
2021/10/23 16:31:08;;;;;;;24.65;18.02;;;;;;;15.52;81.87;95031.52;827677;71;29744;-76
2021/10/23 16:46:15;;;;;;;20.45;16.80;;;;;;;15.18;81.45;95051.41;833220;71;32718;-78
2021/10/23 17:01:09;;;;;;;23.25;15.48;;;;;;;14.92;81.95;95057.33;827582;71;29668;-77
2021/10/23 17:16:09;;;;;;;20.65;15.85;;;;;;;14.74;82.28;95066.99;827445;71;30311;-78
2021/10/23 17:31:11;;;;;;;15.65;12.23;;;;;;;14.50;80.91;95061.17;827590;71;29721;-77
2021/10/23 17:46:20;;;;;;;13.18;10.13;;;;;;;14.27;80.41;95061.66;826480;71;33238;-76
2021/10/23 18:01:09;;;;;;;12.60;10.03;;;;;;;14.12;80.26;95074.64;827601;71;30885;-77
2021/10/23 18:16:17;;;;;;;12.85;10.03;;;;;;;14.06;80.33;95076.59;827141;71;32934;-78
2021/10/23 18:31:08;;;;;;;13.83;10.75;;;;;;;14.00;80.82;95089.64;827645;71;30219;-80
2021/10/23 18:46:16;;;;;;;12.63;10.03;;;;;;;13.91;80.22;95100.63;820315;71;33024;-75
2021/10/23 19:01:19;;;;;;;11.70;8.65;;;;;;;13.73;79.41;95099.66;822582;71;30895;-78
2021/10/23 19:16:10;;;;;;;10.50;9.20;;;;;;;13.55;79.18;95108.67;822693;71;29833;-78
2021/10/23 19:31:10;;;;;;;12.00;9.83;;;;;;;13.32;79.08;95129.36;820239;71;30368;-76
2021/10/23 19:46:17;;;;;;;13.62;10.10;;;;;;;13.18;79.35;95134.58;822263;71;33283;-81
2021/10/23 20:01:33;;;;;;;11.10;9.20;;;;;;;13.00;79.21;95152.74;833642;71;33276;-77
2021/10/23 20:16:31;;;;;;;11.20;9.58;;;;;;;12.77;79.04;95166.25;828774;71;32702;-78
2021/10/23 20:31:29;;;;;;;11.22;8.18;;;;;;;12.64;79.31;95190.64;835874;71;32685;-79
2021/10/23 20:46:34;;;;;;;8.45;7.35;;;;;;;12.37;77.47;95212.30;835748;71;32739;-79
2021/10/23 21:16:25;;;;;;;8.00;6.97;;;;;;;11.86;75.28;95251.70;832969;71;33656;-82
2021/10/23 21:31:30;;;;;;;7.50;6.70;;;;;;;11.64;75.40;95266.59;826678;71;32653;-80
2021/10/23 21:46:33;;;;;;;8.50;6.33;;;;;;;11.42;77.58;95279.62;817171;70;32761;-79
2021/10/23 22:01:20;;;;;;;8.03;6.20;;;;;;;11.19;80.37;95290.27;832449;71;33264;-78
2021/10/23 22:16:25;;;;;;;5.83;5.33;;;;;;;10.92;82.10;95303.78;828246;71;32664;-79
2021/10/23 22:31:41;;;;;;;5.78;5.28;;;;;;;10.77;82.64;95326.17;826714;71;32791;-79
2021/10/23 22:46:55;;;;;;;5.67;5.17;;;;;;;10.67;83.02;95327.52;814899;72;32884;-79
2021/10/23 23:01:26;;;;;;;5.72;5.08;;;;;;;10.57;83.01;95349.31;833268;71;33237;-79
2021/10/23 23:16:24;;;;;;;;;;;;;;;;;;;;;
2021/10/23 23:31:19;;;;;;;5.95;5.45;;;;;;;10.32;83.52;95377.16;833183;71;33204;-76
2021/10/23 23:46:16;;;;;;;6.58;5.65;;;;;;;10.06;83.61;95365.05;827356;71;29888;-79
